sensor_id;sensor_type;location;lat;lon;timestamp;P1;durP1;ratioP1;P2;durP2;ratioP2
42964;SDS011;28604;51.204;22.552;2023-02-15T00:01:40;44.88;;;27.95;;
42964;SDS011;28604;51.204;22.552;2023-02-15T00:04:06;49.95;;;27.95;;
42964;SDS011;28604;51.204;22.552;2023-02-15T00:06:34;50.70;;;27.95;;
42964;SDS011;28604;51.204;22.552;2023-02-15T00:09:00;46.63;;;27.23;;
42964;SDS011;28604;51.204;22.552;2023-02-15T00:11:26;52.25;;;27.95;;
42964;SDS011;28604;51.204;22.552;2023-02-15T00:16:39;44.17;;;26.55;;
42964;SDS011;28604;51.204;22.552;2023-02-15T00:19:06;49.88;;;26.83;;
42964;SDS011;28604;51.204;22.552;2023-02-15T00:21:33;53.47;;;28.23;;
42964;SDS011;28604;51.204;22.552;2023-02-15T00:24:00;50.55;;;29.55;;
42964;SDS011;28604;51.204;22.552;2023-02-15T00:26:27;52.60;;;29.70;;
42964;SDS011;28604;51.204;22.552;2023-02-15T00:28:53;52.72;;;29.45;;
42964;SDS011;28604;51.204;22.552;2023-02-15T00:31:21;54.75;;;28.67;;
42964;SDS011;28604;51.204;22.552;2023-02-15T00:33:47;51.08;;;29.20;;
42964;SDS011;28604;51.204;22.552;2023-02-15T00:36:13;54.40;;;29.08;;
42964;SDS011;28604;51.204;22.552;2023-02-15T00:38:39;58.42;;;30.33;;
42964;SDS011;28604;51.204;22.552;2023-02-15T00:41:06;48.63;;;26.92;;
42964;SDS011;28604;51.204;22.552;2023-02-15T00:43:34;50.90;;;27.88;;
42964;SDS011;28604;51.204;22.552;2023-02-15T00:46:01;57.13;;;28.20;;
42964;SDS011;28604;51.204;22.552;2023-02-15T00:48:28;50.72;;;27.30;;
42964;SDS011;28604;51.204;22.552;2023-02-15T00:50:57;46.60;;;26.55;;
42964;SDS011;28604;51.204;22.552;2023-02-15T00:53:25;48.92;;;26.75;;
42964;SDS011;28604;51.204;22.552;2023-02-15T00:55:52;56.38;;;29.58;;
42964;SDS011;28604;51.204;22.552;2023-02-15T00:58:18;52.75;;;27.67;;
42964;SDS011;28604;51.204;22.552;2023-02-15T01:00:45;46.25;;;26.30;;
42964;SDS011;28604;51.204;22.552;2023-02-15T01:03:13;54.20;;;27.88;;
42964;SDS011;28604;51.204;22.552;2023-02-15T01:05:41;54.30;;;28.77;;
42964;SDS011;28604;51.204;22.552;2023-02-15T01:08:07;53.15;;;28.60;;
42964;SDS011;28604;51.204;22.552;2023-02-15T01:10:34;50.83;;;28.40;;
42964;SDS011;28604;51.204;22.552;2023-02-15T01:13:00;49.95;;;27.10;;
42964;SDS011;28604;51.204;22.552;2023-02-15T01:15:28;56.92;;;29.40;;
42964;SDS011;28604;51.204;22.552;2023-02-15T01:17:54;52.47;;;26.98;;
42964;SDS011;28604;51.204;22.552;2023-02-15T01:20:24;48.38;;;28.17;;
42964;SDS011;28604;51.204;22.552;2023-02-15T01:22:53;46.00;;;26.50;;
42964;SDS011;28604;51.204;22.552;2023-02-15T01:25:21;50.17;;;27.60;;
42964;SDS011;28604;51.204;22.552;2023-02-15T01:27:47;57.63;;;27.30;;
42964;SDS011;28604;51.204;22.552;2023-02-15T01:30:14;52.17;;;27.60;;
42964;SDS011;28604;51.204;22.552;2023-02-15T01:32:40;58.97;;;30.73;;
42964;SDS011;28604;51.204;22.552;2023-02-15T01:35:08;50.88;;;28.08;;
42964;SDS011;28604;51.204;22.552;2023-02-15T01:37:34;53.08;;;28.05;;
42964;SDS011;28604;51.204;22.552;2023-02-15T01:40:02;55.10;;;29.70;;
42964;SDS011;28604;51.204;22.552;2023-02-15T01:42:29;58.85;;;29.92;;
42964;SDS011;28604;51.204;22.552;2023-02-15T01:45:03;51.58;;;27.35;;
42964;SDS011;28604;51.204;22.552;2023-02-15T01:47:47;51.00;;;27.27;;
42964;SDS011;28604;51.204;22.552;2023-02-15T01:50:24;51.72;;;28.45;;
42964;SDS011;28604;51.204;22.552;2023-02-15T01:53:17;53.90;;;27.60;;
42964;SDS011;28604;51.204;22.552;2023-02-15T01:56:10;45.83;;;26.25;;
42964;SDS011;28604;51.204;22.552;2023-02-15T01:58:40;50.92;;;28.15;;
42964;SDS011;28604;51.204;22.552;2023-02-15T02:01:08;50.80;;;28.92;;
42964;SDS011;28604;51.204;22.552;2023-02-15T02:03:43;52.33;;;27.23;;
42964;SDS011;28604;51.204;22.552;2023-02-15T02:06:37;49.28;;;25.33;;
42964;SDS011;28604;51.204;22.552;2023-02-15T02:09:05;52.70;;;28.02;;
42964;SDS011;28604;51.204;22.552;2023-02-15T02:11:32;52.30;;;29.67;;
42964;SDS011;28604;51.204;22.552;2023-02-15T02:13:58;52.40;;;27.92;;
42964;SDS011;28604;51.204;22.552;2023-02-15T02:30:40;51.28;;;27.42;;
42964;SDS011;28604;51.204;22.552;2023-02-15T02:33:15;53.17;;;27.15;;
42964;SDS011;28604;51.204;22.552;2023-02-15T02:36:07;54.63;;;27.23;;
42964;SDS011;28604;51.204;22.552;2023-02-15T02:41:42;61.60;;;29.35;;
42964;SDS011;28604;51.204;22.552;2023-02-15T02:47:33;50.67;;;27.27;;
42964;SDS011;28604;51.204;22.552;2023-02-15T02:55:30;57.13;;;28.33;;
42964;SDS011;28604;51.204;22.552;2023-02-15T02:57:58;57.47;;;27.60;;
42964;SDS011;28604;51.204;22.552;2023-02-15T03:00:49;51.47;;;27.52;;
42964;SDS011;28604;51.204;22.552;2023-02-15T03:04:20;55.85;;;28.63;;
42964;SDS011;28604;51.204;22.552;2023-02-15T03:06:18;56.13;;;28.48;;
42964;SDS011;28604;51.204;22.552;2023-02-15T03:09:12;54.28;;;27.88;;
42964;SDS011;28604;51.204;22.552;2023-02-15T03:11:43;49.92;;;25.88;;
42964;SDS011;28604;51.204;22.552;2023-02-15T03:14:10;49.70;;;27.88;;
42964;SDS011;28604;51.204;22.552;2023-02-15T03:16:39;51.22;;;28.20;;
42964;SDS011;28604;51.204;22.552;2023-02-15T03:19:08;50.72;;;26.65;;
42964;SDS011;28604;51.204;22.552;2023-02-15T03:21:42;50.15;;;26.08;;
42964;SDS011;28604;51.204;22.552;2023-02-15T03:24:28;50.47;;;27.80;;
42964;SDS011;28604;51.204;22.552;2023-02-15T03:27:02;50.95;;;28.02;;
42964;SDS011;28604;51.204;22.552;2023-02-15T03:29:31;45.80;;;26.10;;
42964;SDS011;28604;51.204;22.552;2023-02-15T03:32:00;48.15;;;26.40;;
42964;SDS011;28604;51.204;22.552;2023-02-15T03:34:27;49.92;;;27.13;;
42964;SDS011;28604;51.204;22.552;2023-02-15T03:39:48;54.00;;;26.70;;
42964;SDS011;28604;51.204;22.552;2023-02-15T03:42:26;51.85;;;27.77;;
42964;SDS011;28604;51.204;22.552;2023-02-15T03:45:09;50.15;;;27.88;;
42964;SDS011;28604;51.204;22.552;2023-02-15T03:47:41;51.58;;;26.20;;
42964;SDS011;28604;51.204;22.552;2023-02-15T03:53:24;51.47;;;25.83;;
42964;SDS011;28604;51.204;22.552;2023-02-15T03:55:54;44.45;;;24.45;;
42964;SDS011;28604;51.204;22.552;2023-02-15T03:58:20;49.50;;;26.15;;
42964;SDS011;28604;51.204;22.552;2023-02-15T04:04:19;44.05;;;22.95;;
42964;SDS011;28604;51.204;22.552;2023-02-15T04:06:47;42.88;;;23.45;;
42964;SDS011;28604;51.204;22.552;2023-02-15T04:09:14;44.33;;;22.67;;
42964;SDS011;28604;51.204;22.552;2023-02-15T04:11:58;38.60;;;20.85;;
42964;SDS011;28604;51.204;22.552;2023-02-15T04:14:24;36.13;;;20.98;;
42964;SDS011;28604;51.204;22.552;2023-02-15T04:17:09;34.80;;;19.65;;
42964;SDS011;28604;51.204;22.552;2023-02-15T04:19:35;32.10;;;19.10;;
42964;SDS011;28604;51.204;22.552;2023-02-15T04:22:20;32.88;;;19.17;;
42964;SDS011;28604;51.204;22.552;2023-02-15T04:25:04;38.17;;;20.77;;
42964;SDS011;28604;51.204;22.552;2023-02-15T04:27:37;39.78;;;21.30;;
42964;SDS011;28604;51.204;22.552;2023-02-15T04:30:04;37.15;;;19.77;;
42964;SDS011;28604;51.204;22.552;2023-02-15T04:32:31;32.90;;;19.35;;
42964;SDS011;28604;51.204;22.552;2023-02-15T04:34:58;36.28;;;19.52;;
42964;SDS011;28604;51.204;22.552;2023-02-15T04:37:24;38.33;;;20.95;;
42964;SDS011;28604;51.204;22.552;2023-02-15T04:39:50;39.90;;;20.52;;
42964;SDS011;28604;51.204;22.552;2023-02-15T04:42:16;41.28;;;21.77;;
42964;SDS011;28604;51.204;22.552;2023-02-15T04:44:42;35.33;;;19.70;;
42964;SDS011;28604;51.204;22.552;2023-02-15T04:47:08;35.38;;;19.83;;
42964;SDS011;28604;51.204;22.552;2023-02-15T04:49:34;35.17;;;20.10;;
42964;SDS011;28604;51.204;22.552;2023-02-15T04:52:00;38.25;;;20.95;;
42964;SDS011;28604;51.204;22.552;2023-02-15T04:54:26;35.00;;;19.45;;
42964;SDS011;28604;51.204;22.552;2023-02-15T04:56:52;36.90;;;20.42;;
42964;SDS011;28604;51.204;22.552;2023-02-15T04:59:18;35.78;;;20.58;;
42964;SDS011;28604;51.204;22.552;2023-02-15T05:01:44;36.28;;;20.73;;
42964;SDS011;28604;51.204;22.552;2023-02-15T05:04:10;41.13;;;21.92;;
42964;SDS011;28604;51.204;22.552;2023-02-15T05:06:35;40.28;;;22.05;;
42964;SDS011;28604;51.204;22.552;2023-02-15T05:09:02;38.67;;;22.98;;
42964;SDS011;28604;51.204;22.552;2023-02-15T05:11:27;37.55;;;21.55;;
42964;SDS011;28604;51.204;22.552;2023-02-15T05:13:53;36.22;;;21.02;;
42964;SDS011;28604;51.204;22.552;2023-02-15T05:16:19;39.13;;;21.48;;
42964;SDS011;28604;51.204;22.552;2023-02-15T05:18:45;34.10;;;21.15;;
42964;SDS011;28604;51.204;22.552;2023-02-15T05:21:11;42.67;;;21.98;;
42964;SDS011;28604;51.204;22.552;2023-02-15T05:23:39;38.63;;;20.70;;
42964;SDS011;28604;51.204;22.552;2023-02-15T05:26:04;41.50;;;22.95;;
42964;SDS011;28604;51.204;22.552;2023-02-15T05:28:49;39.20;;;21.33;;
42964;SDS011;28604;51.204;22.552;2023-02-15T05:31:18;40.97;;;21.02;;
42964;SDS011;28604;51.204;22.552;2023-02-15T05:33:45;42.08;;;22.35;;
42964;SDS011;28604;51.204;22.552;2023-02-15T05:36:11;40.95;;;22.85;;
42964;SDS011;28604;51.204;22.552;2023-02-15T05:38:38;38.22;;;21.85;;
42964;SDS011;28604;51.204;22.552;2023-02-15T05:41:04;40.22;;;22.40;;
42964;SDS011;28604;51.204;22.552;2023-02-15T05:43:31;40.67;;;22.60;;
42964;SDS011;28604;51.204;22.552;2023-02-15T05:45:57;43.63;;;21.95;;
42964;SDS011;28604;51.204;22.552;2023-02-15T05:48:24;36.72;;;20.63;;
42964;SDS011;28604;51.204;22.552;2023-02-15T05:50:58;39.75;;;21.70;;
42964;SDS011;28604;51.204;22.552;2023-02-15T05:53:25;41.80;;;23.40;;
42964;SDS011;28604;51.204;22.552;2023-02-15T05:55:52;36.13;;;20.73;;
42964;SDS011;28604;51.204;22.552;2023-02-15T05:58:19;40.90;;;22.63;;
42964;SDS011;28604;51.204;22.552;2023-02-15T06:00:45;44.20;;;22.92;;
42964;SDS011;28604;51.204;22.552;2023-02-15T06:03:11;37.78;;;20.88;;
42964;SDS011;28604;51.204;22.552;2023-02-15T06:05:37;36.40;;;22.10;;
42964;SDS011;28604;51.204;22.552;2023-02-15T06:08:03;44.75;;;24.98;;
42964;SDS011;28604;51.204;22.552;2023-02-15T06:10:29;47.53;;;24.65;;
42964;SDS011;28604;51.204;22.552;2023-02-15T06:12:55;43.38;;;23.08;;
42964;SDS011;28604;51.204;22.552;2023-02-15T06:15:21;44.13;;;23.38;;
42964;SDS011;28604;51.204;22.552;2023-02-15T06:17:47;43.25;;;22.90;;
42964;SDS011;28604;51.204;22.552;2023-02-15T06:20:12;40.80;;;22.00;;
42964;SDS011;28604;51.204;22.552;2023-02-15T06:22:39;39.47;;;22.42;;
42964;SDS011;28604;51.204;22.552;2023-02-15T06:25:04;44.13;;;24.00;;
42964;SDS011;28604;51.204;22.552;2023-02-15T06:27:31;40.63;;;22.75;;
42964;SDS011;28604;51.204;22.552;2023-02-15T06:29:56;40.63;;;22.70;;
42964;SDS011;28604;51.204;22.552;2023-02-15T06:32:22;42.70;;;22.23;;
42964;SDS011;28604;51.204;22.552;2023-02-15T06:34:48;41.97;;;22.90;;
42964;SDS011;28604;51.204;22.552;2023-02-15T06:37:14;40.75;;;22.65;;
42964;SDS011;28604;51.204;22.552;2023-02-15T06:39:40;43.13;;;22.50;;
42964;SDS011;28604;51.204;22.552;2023-02-15T06:42:06;43.38;;;21.27;;
42964;SDS011;28604;51.204;22.552;2023-02-15T06:44:32;40.88;;;21.63;;
42964;SDS011;28604;51.204;22.552;2023-02-15T06:46:58;36.63;;;22.15;;
42964;SDS011;28604;51.204;22.552;2023-02-15T06:49:24;37.67;;;21.33;;
42964;SDS011;28604;51.204;22.552;2023-02-15T06:51:50;42.97;;;21.83;;
42964;SDS011;28604;51.204;22.552;2023-02-15T06:54:16;43.58;;;24.08;;
42964;SDS011;28604;51.204;22.552;2023-02-15T06:56:42;39.17;;;21.75;;
42964;SDS011;28604;51.204;22.552;2023-02-15T06:59:08;43.20;;;20.67;;
42964;SDS011;28604;51.204;22.552;2023-02-15T07:01:34;42.72;;;21.70;;
42964;SDS011;28604;51.204;22.552;2023-02-15T07:04:02;39.92;;;21.45;;
42964;SDS011;28604;51.204;22.552;2023-02-15T07:06:31;38.78;;;20.42;;
42964;SDS011;28604;51.204;22.552;2023-02-15T07:08:58;39.78;;;21.75;;
42964;SDS011;28604;51.204;22.552;2023-02-15T07:11:24;40.05;;;23.10;;
42964;SDS011;28604;51.204;22.552;2023-02-15T07:14:09;41.10;;;20.92;;
42964;SDS011;28604;51.204;22.552;2023-02-15T07:16:35;38.10;;;20.48;;
42964;SDS011;28604;51.204;22.552;2023-02-15T07:19:01;36.03;;;21.77;;
42964;SDS011;28604;51.204;22.552;2023-02-15T07:21:27;33.90;;;19.60;;
42964;SDS011;28604;51.204;22.552;2023-02-15T07:23:55;32.70;;;17.90;;
42964;SDS011;28604;51.204;22.552;2023-02-15T07:26:23;31.42;;;18.55;;
42964;SDS011;28604;51.204;22.552;2023-02-15T07:28:49;37.85;;;20.02;;
42964;SDS011;28604;51.204;22.552;2023-02-15T07:31:15;40.35;;;21.15;;
42964;SDS011;28604;51.204;22.552;2023-02-15T07:33:40;40.92;;;21.15;;
42964;SDS011;28604;51.204;22.552;2023-02-15T07:36:07;42.85;;;22.65;;
42964;SDS011;28604;51.204;22.552;2023-02-15T07:38:37;41.78;;;21.95;;
42964;SDS011;28604;51.204;22.552;2023-02-15T07:41:05;41.88;;;23.40;;
42964;SDS011;28604;51.204;22.552;2023-02-15T07:43:34;41.50;;;20.90;;
42964;SDS011;28604;51.204;22.552;2023-02-15T07:46:02;41.13;;;22.02;;
42964;SDS011;28604;51.204;22.552;2023-02-15T07:48:30;49.63;;;23.65;;
42964;SDS011;28604;51.204;22.552;2023-02-15T07:51:00;45.17;;;25.92;;
42964;SDS011;28604;51.204;22.552;2023-02-15T07:53:28;47.88;;;25.40;;
42964;SDS011;28604;51.204;22.552;2023-02-15T07:55:58;39.95;;;22.23;;
42964;SDS011;28604;51.204;22.552;2023-02-15T07:58:24;39.08;;;20.02;;
42964;SDS011;28604;51.204;22.552;2023-02-15T08:01:11;37.33;;;20.17;;
42964;SDS011;28604;51.204;22.552;2023-02-15T08:03:38;36.38;;;20.80;;
42964;SDS011;28604;51.204;22.552;2023-02-15T08:06:05;36.13;;;20.92;;
42964;SDS011;28604;51.204;22.552;2023-02-15T08:08:33;43.08;;;21.30;;
42964;SDS011;28604;51.204;22.552;2023-02-15T08:11:04;42.00;;;23.63;;
42964;SDS011;28604;51.204;22.552;2023-02-15T08:13:59;41.55;;;22.92;;
42964;SDS011;28604;51.204;22.552;2023-02-15T08:16:40;42.75;;;20.73;;
42964;SDS011;28604;51.204;22.552;2023-02-15T08:21:40;39.15;;;21.60;;
42964;SDS011;28604;51.204;22.552;2023-02-15T08:24:08;35.72;;;21.55;;
42964;SDS011;28604;51.204;22.552;2023-02-15T08:26:36;41.35;;;23.27;;
42964;SDS011;28604;51.204;22.552;2023-02-15T08:29:04;42.55;;;23.05;;
42964;SDS011;28604;51.204;22.552;2023-02-15T08:31:32;46.78;;;24.75;;
42964;SDS011;28604;51.204;22.552;2023-02-15T08:33:58;45.03;;;25.95;;
42964;SDS011;28604;51.204;22.552;2023-02-15T08:36:26;44.95;;;25.25;;
42964;SDS011;28604;51.204;22.552;2023-02-15T08:38:54;46.33;;;24.63;;
42964;SDS011;28604;51.204;22.552;2023-02-15T08:41:23;41.08;;;24.92;;
42964;SDS011;28604;51.204;22.552;2023-02-15T08:43:52;43.63;;;24.40;;
42964;SDS011;28604;51.204;22.552;2023-02-15T08:46:19;46.05;;;25.80;;
42964;SDS011;28604;51.204;22.552;2023-02-15T08:48:46;41.28;;;23.95;;
42964;SDS011;28604;51.204;22.552;2023-02-15T08:51:14;45.67;;;25.70;;
42964;SDS011;28604;51.204;22.552;2023-02-15T08:53:42;46.85;;;25.52;;
42964;SDS011;28604;51.204;22.552;2023-02-15T08:56:10;51.47;;;27.55;;
42964;SDS011;28604;51.204;22.552;2023-02-15T08:58:36;46.95;;;27.23;;
42964;SDS011;28604;51.204;22.552;2023-02-15T09:01:12;49.90;;;27.55;;
42964;SDS011;28604;51.204;22.552;2023-02-15T09:03:43;48.08;;;26.65;;
42964;SDS011;28604;51.204;22.552;2023-02-15T09:06:10;53.47;;;27.75;;
42964;SDS011;28604;51.204;22.552;2023-02-15T09:08:37;50.50;;;27.33;;
42964;SDS011;28604;51.204;22.552;2023-02-15T09:11:25;46.50;;;25.98;;
42964;SDS011;28604;51.204;22.552;2023-02-15T09:16:29;45.55;;;24.85;;
42964;SDS011;28604;51.204;22.552;2023-02-15T09:18:56;43.75;;;23.83;;
42964;SDS011;28604;51.204;22.552;2023-02-15T09:21:24;51.55;;;26.00;;
42964;SDS011;28604;51.204;22.552;2023-02-15T09:23:54;51.20;;;26.20;;
42964;SDS011;28604;51.204;22.552;2023-02-15T09:26:22;55.67;;;28.40;;
42964;SDS011;28604;51.204;22.552;2023-02-15T09:28:51;51.92;;;27.30;;
42964;SDS011;28604;51.204;22.552;2023-02-15T09:31:21;52.53;;;26.50;;
42964;SDS011;28604;51.204;22.552;2023-02-15T09:33:49;43.63;;;25.08;;
42964;SDS011;28604;51.204;22.552;2023-02-15T09:36:17;44.78;;;25.25;;
42964;SDS011;28604;51.204;22.552;2023-02-15T09:38:43;46.00;;;25.88;;
42964;SDS011;28604;51.204;22.552;2023-02-15T09:41:15;46.67;;;25.30;;
42964;SDS011;28604;51.204;22.552;2023-02-15T09:49:47;53.65;;;27.05;;
42964;SDS011;28604;51.204;22.552;2023-02-15T09:52:25;46.65;;;26.38;;
42964;SDS011;28604;51.204;22.552;2023-02-15T10:01:17;39.53;;;22.40;;
42964;SDS011;28604;51.204;22.552;2023-02-15T10:03:56;43.25;;;23.58;;
42964;SDS011;28604;51.204;22.552;2023-02-15T10:06:29;38.55;;;21.52;;
42964;SDS011;28604;51.204;22.552;2023-02-15T10:11:59;35.72;;;21.63;;
42964;SDS011;28604;51.204;22.552;2023-02-15T10:20:11;41.35;;;22.70;;
42964;SDS011;28604;51.204;22.552;2023-02-15T10:29:02;32.70;;;19.77;;
42964;SDS011;28604;51.204;22.552;2023-02-15T10:31:51;32.10;;;18.35;;
42964;SDS011;28604;51.204;22.552;2023-02-15T10:40:10;29.65;;;17.63;;
42964;SDS011;28604;51.204;22.552;2023-02-15T10:48:29;31.77;;;17.75;;
42964;SDS011;28604;51.204;22.552;2023-02-15T10:51:19;28.67;;;17.20;;
42964;SDS011;28604;51.204;22.552;2023-02-15T10:54:25;30.02;;;16.52;;
42964;SDS011;28604;51.204;22.552;2023-02-15T10:57:02;28.50;;;17.20;;
42964;SDS011;28604;51.204;22.552;2023-02-15T10:59:42;28.35;;;18.00;;
42964;SDS011;28604;51.204;22.552;2023-02-15T11:02:14;27.95;;;18.20;;
42964;SDS011;28604;51.204;22.552;2023-02-15T11:05:07;29.52;;;18.52;;
42964;SDS011;28604;51.204;22.552;2023-02-15T11:07:52;24.73;;;16.65;;
42964;SDS011;28604;51.204;22.552;2023-02-15T11:10:42;30.08;;;16.33;;
42964;SDS011;28604;51.204;22.552;2023-02-15T11:13:34;32.75;;;17.33;;
42964;SDS011;28604;51.204;22.552;2023-02-15T11:18:43;33.45;;;19.50;;
42964;SDS011;28604;51.204;22.552;2023-02-15T11:21:31;28.95;;;18.88;;
42964;SDS011;28604;51.204;22.552;2023-02-15T11:26:46;29.98;;;18.73;;
42964;SDS011;28604;51.204;22.552;2023-02-15T11:29:18;27.48;;;17.90;;
42964;SDS011;28604;51.204;22.552;2023-02-15T11:34:50;32.55;;;20.05;;
42964;SDS011;28604;51.204;22.552;2023-02-15T11:37:33;35.65;;;19.73;;
42964;SDS011;28604;51.204;22.552;2023-02-15T11:40:15;33.58;;;20.45;;
42964;SDS011;28604;51.204;22.552;2023-02-15T11:42:50;28.48;;;19.17;;
42964;SDS011;28604;51.204;22.552;2023-02-15T11:47:49;32.53;;;19.23;;
42964;SDS011;28604;51.204;22.552;2023-02-15T11:50:16;38.63;;;21.65;;
42964;SDS011;28604;51.204;22.552;2023-02-15T11:55:16;32.20;;;19.98;;
42964;SDS011;28604;51.204;22.552;2023-02-15T11:58:33;31.55;;;20.38;;
42964;SDS011;28604;51.204;22.552;2023-02-15T12:00:54;30.70;;;21.13;;
42964;SDS011;28604;51.204;22.552;2023-02-15T12:03:49;31.85;;;20.00;;
42964;SDS011;28604;51.204;22.552;2023-02-15T12:06:19;33.03;;;21.52;;
42964;SDS011;28604;51.204;22.552;2023-02-15T12:12:19;31.90;;;19.80;;
42964;SDS011;28604;51.204;22.552;2023-02-15T12:14:48;29.83;;;19.90;;
42964;SDS011;28604;51.204;22.552;2023-02-15T12:17:16;26.45;;;19.15;;
42964;SDS011;28604;51.204;22.552;2023-02-15T12:19:44;28.75;;;19.42;;
42964;SDS011;28604;51.204;22.552;2023-02-15T12:22:20;25.05;;;18.27;;
42964;SDS011;28604;51.204;22.552;2023-02-15T12:24:54;31.27;;;20.17;;
42964;SDS011;28604;51.204;22.552;2023-02-15T12:27:27;28.90;;;19.73;;
42964;SDS011;28604;51.204;22.552;2023-02-15T12:30:19;29.45;;;18.00;;
42964;SDS011;28604;51.204;22.552;2023-02-15T12:33:03;24.73;;;17.08;;
42964;SDS011;28604;51.204;22.552;2023-02-15T12:35:40;26.77;;;18.73;;
42964;SDS011;28604;51.204;22.552;2023-02-15T12:40:37;22.23;;;17.73;;
42964;SDS011;28604;51.204;22.552;2023-02-15T12:43:08;24.25;;;17.52;;
42964;SDS011;28604;51.204;22.552;2023-02-15T12:46:22;23.48;;;16.98;;
42964;SDS011;28604;51.204;22.552;2023-02-15T12:51:43;25.55;;;17.75;;
42964;SDS011;28604;51.204;22.552;2023-02-15T12:54:17;26.42;;;17.02;;
42964;SDS011;28604;51.204;22.552;2023-02-15T12:56:47;23.95;;;17.40;;
42964;SDS011;28604;51.204;22.552;2023-02-15T12:59:14;24.38;;;17.17;;
42964;SDS011;28604;51.204;22.552;2023-02-15T13:01:45;26.52;;;18.45;;
42964;SDS011;28604;51.204;22.552;2023-02-15T13:04:33;27.85;;;17.80;;
42964;SDS011;28604;51.204;22.552;2023-02-15T13:07:00;23.83;;;15.90;;
42964;SDS011;28604;51.204;22.552;2023-02-15T13:14:43;23.92;;;16.45;;
42964;SDS011;28604;51.204;22.552;2023-02-15T13:17:10;24.02;;;17.00;;
42964;SDS011;28604;51.204;22.552;2023-02-15T13:19:43;20.30;;;16.75;;
42964;SDS011;28604;51.204;22.552;2023-02-15T13:22:23;24.75;;;17.88;;
42964;SDS011;28604;51.204;22.552;2023-02-15T13:24:55;24.27;;;18.10;;
42964;SDS011;28604;51.204;22.552;2023-02-15T13:27:24;24.90;;;17.58;;
42964;SDS011;28604;51.204;22.552;2023-02-15T13:30:02;23.42;;;18.30;;
42964;SDS011;28604;51.204;22.552;2023-02-15T13:32:38;24.48;;;18.00;;
42964;SDS011;28604;51.204;22.552;2023-02-15T13:35:10;27.42;;;18.40;;
42964;SDS011;28604;51.204;22.552;2023-02-15T13:43:18;29.85;;;20.42;;
42964;SDS011;28604;51.204;22.552;2023-02-15T13:57:40;33.50;;;21.98;;
42964;SDS011;28604;51.204;22.552;2023-02-15T14:08:22;27.73;;;18.77;;
42964;SDS011;28604;51.204;22.552;2023-02-15T14:17:05;29.88;;;18.52;;
42964;SDS011;28604;51.204;22.552;2023-02-15T14:19:46;27.25;;;19.30;;
42964;SDS011;28604;51.204;22.552;2023-02-15T14:22:31;25.58;;;18.20;;
42964;SDS011;28604;51.204;22.552;2023-02-15T14:30:41;25.92;;;20.00;;
42964;SDS011;28604;51.204;22.552;2023-02-15T14:35:40;30.80;;;21.17;;
42964;SDS011;28604;51.204;22.552;2023-02-15T14:41:07;28.92;;;19.77;;
42964;SDS011;28604;51.204;22.552;2023-02-15T14:57:33;28.55;;;19.85;;
42964;SDS011;28604;51.204;22.552;2023-02-15T14:59:37;29.67;;;19.58;;
42964;SDS011;28604;51.204;22.552;2023-02-15T15:04:34;28.92;;;19.10;;
42964;SDS011;28604;51.204;22.552;2023-02-15T15:10:03;33.03;;;20.58;;
42964;SDS011;28604;51.204;22.552;2023-02-15T15:12:53;30.35;;;20.02;;
42964;SDS011;28604;51.204;22.552;2023-02-15T15:17:58;31.63;;;19.30;;
42964;SDS011;28604;51.204;22.552;2023-02-15T15:25:46;32.10;;;21.00;;
42964;SDS011;28604;51.204;22.552;2023-02-15T15:31:07;36.25;;;21.25;;
42964;SDS011;28604;51.204;22.552;2023-02-15T15:44:53;31.02;;;20.63;;
42964;SDS011;28604;51.204;22.552;2023-02-15T15:50:40;35.78;;;20.13;;
42964;SDS011;28604;51.204;22.552;2023-02-15T15:53:14;33.33;;;20.55;;
42964;SDS011;28604;51.204;22.552;2023-02-15T15:55:48;32.00;;;18.60;;
42964;SDS011;28604;51.204;22.552;2023-02-15T15:58:19;33.65;;;18.58;;
42964;SDS011;28604;51.204;22.552;2023-02-15T16:00:49;28.58;;;17.38;;
42964;SDS011;28604;51.204;22.552;2023-02-15T16:03:24;25.63;;;16.58;;
42964;SDS011;28604;51.204;22.552;2023-02-15T16:05:52;23.98;;;15.60;;
42964;SDS011;28604;51.204;22.552;2023-02-15T16:08:26;26.38;;;15.30;;
42964;SDS011;28604;51.204;22.552;2023-02-15T16:10:53;31.40;;;16.23;;
42964;SDS011;28604;51.204;22.552;2023-02-15T16:13:19;27.63;;;17.00;;
42964;SDS011;28604;51.204;22.552;2023-02-15T16:15:46;30.75;;;16.50;;
42964;SDS011;28604;51.204;22.552;2023-02-15T16:18:18;31.73;;;17.88;;
42964;SDS011;28604;51.204;22.552;2023-02-15T16:20:57;24.83;;;16.63;;
42964;SDS011;28604;51.204;22.552;2023-02-15T16:26:03;29.42;;;17.45;;
42964;SDS011;28604;51.204;22.552;2023-02-15T16:28:39;26.02;;;16.98;;
42964;SDS011;28604;51.204;22.552;2023-02-15T16:31:13;30.73;;;17.95;;
42964;SDS011;28604;51.204;22.552;2023-02-15T16:33:43;28.05;;;17.45;;
42964;SDS011;28604;51.204;22.552;2023-02-15T16:36:11;32.78;;;17.27;;
42964;SDS011;28604;51.204;22.552;2023-02-15T16:41:12;31.60;;;17.73;;
42964;SDS011;28604;51.204;22.552;2023-02-15T16:43:41;33.63;;;19.48;;
42964;SDS011;28604;51.204;22.552;2023-02-15T16:46:11;33.55;;;19.77;;
42964;SDS011;28604;51.204;22.552;2023-02-15T16:48:48;36.25;;;19.15;;
42964;SDS011;28604;51.204;22.552;2023-02-15T16:51:22;44.28;;;22.50;;
42964;SDS011;28604;51.204;22.552;2023-02-15T16:53:55;46.92;;;23.38;;
42964;SDS011;28604;51.204;22.552;2023-02-15T16:56:31;72.63;;;33.13;;
42964;SDS011;28604;51.204;22.552;2023-02-15T16:58:57;184.00;;;89.95;;
42964;SDS011;28604;51.204;22.552;2023-02-15T17:01:25;199.65;;;93.43;;
42964;SDS011;28604;51.204;22.552;2023-02-15T17:06:38;223.18;;;99.40;;
42964;SDS011;28604;51.204;22.552;2023-02-15T17:09:05;224.45;;;98.15;;
42964;SDS011;28604;51.204;22.552;2023-02-15T17:11:42;197.48;;;85.18;;
42964;SDS011;28604;51.204;22.552;2023-02-15T17:16:42;195.35;;;76.50;;
42964;SDS011;28604;51.204;22.552;2023-02-15T17:19:26;212.30;;;81.78;;
42964;SDS011;28604;51.204;22.552;2023-02-15T17:22:02;264.90;;;91.32;;
42964;SDS011;28604;51.204;22.552;2023-02-15T17:24:33;314.35;;;100.85;;
42964;SDS011;28604;51.204;22.552;2023-02-15T17:27:18;394.00;;;130.02;;
42964;SDS011;28604;51.204;22.552;2023-02-15T17:29:48;307.38;;;108.65;;
42964;SDS011;28604;51.204;22.552;2023-02-15T17:32:27;310.83;;;114.53;;
42964;SDS011;28604;51.204;22.552;2023-02-15T17:40:09;280.05;;;112.43;;
42964;SDS011;28604;51.204;22.552;2023-02-15T17:42:44;303.70;;;112.82;;
42964;SDS011;28604;51.204;22.552;2023-02-15T17:45:10;285.58;;;110.03;;
42964;SDS011;28604;51.204;22.552;2023-02-15T17:47:36;290.42;;;109.65;;
42964;SDS011;28604;51.204;22.552;2023-02-15T17:50:04;288.13;;;110.63;;
42964;SDS011;28604;51.204;22.552;2023-02-15T17:52:32;275.33;;;113.82;;
42964;SDS011;28604;51.204;22.552;2023-02-15T17:54:58;276.63;;;114.05;;
42964;SDS011;28604;51.204;22.552;2023-02-15T17:57:48;249.98;;;108.97;;
42964;SDS011;28604;51.204;22.552;2023-02-15T18:00:14;266.70;;;113.18;;
42964;SDS011;28604;51.204;22.552;2023-02-15T18:02:59;255.25;;;108.43;;
42964;SDS011;28604;51.204;22.552;2023-02-15T18:05:44;247.95;;;109.72;;